Time;durP1;ratioP1;P1;durP2;ratioP2;P2;SDS_P1;SDS_P2;PMS_P1;PMS_P2;Temp;Humidity;BMP_temperature;BMP_pressure;BME280_temperature;BME280_humidity;BME280_pressure;Samples;Min_cycle;Max_cycle;Signal;HPM_P1;HPM_P2
2023/02/13 00:02:26;;;;;;;119.97;47.55;;;;;;;;;;10316271;28;20156;-73
2023/02/13 00:07:26;;;;;;;116.00;47.23;;;;;;;;;;10317085;28;20097;-75
2023/02/13 00:12:26;;;;;;;124.28;51.95;;;;;;;;;;10307509;28;20412;-75
2023/02/13 00:17:27;;;;;;;114.30;46.67;;;;;;;;;;10324582;28;20124;-77
2023/02/13 00:22:27;;;;;;;123.03;51.92;;;;;;;;;;10373233;22;20054;-74
2023/02/13 00:27:27;;;;;;;111.90;47.10;;;;;;;;;;10343386;28;20018;-75
2023/02/13 00:32:27;;;;;;;121.38;48.92;;;;;;;;;;10344533;28;20033;-77
2023/02/13 00:37:28;;;;;;;113.30;47.70;;;;;;;;;;10348043;28;20163;-78
2023/02/13 00:42:28;;;;;;;100.00;43.28;;;;;;;;;;10347810;28;20485;-75
2023/02/13 00:47:28;;;;;;;115.65;48.78;;;;;;;;;;10364409;28;20030;-78
2023/02/13 00:52:28;;;;;;;119.53;47.90;;;;;;;;;;10365019;28;20022;-77
2023/02/13 00:57:30;;;;;;;117.95;50.70;;;;;;;;;;10331084;28;20022;-76
2023/02/13 01:02:35;;;;;;;120.63;51.05;;;;;;;;;;10346793;28;20052;-75
2023/02/13 01:07:35;;;;;;;115.72;46.45;;;;;;;;;;10347008;28;20022;-71
2023/02/13 01:12:35;;;;;;;117.25;48.50;;;;;;;;;;10342907;28;20115;-79
2023/02/13 01:17:38;;;;;;;109.47;46.13;;;;;;;;;;10344299;28;20454;-76
2023/02/13 01:22:39;;;;;;;107.80;45.58;;;;;;;;;;10368044;28;20132;-77
2023/02/13 01:27:39;;;;;;;107.82;48.15;;;;;;;;;;10343069;28;20029;-73
2023/02/13 01:32:40;;;;;;;113.32;46.03;;;;;;;;;;10345370;28;20113;-78
2023/02/13 01:37:42;;;;;;;100.93;48.05;;;;;;;;;;10362312;28;20030;-75
2023/02/13 01:42:42;;;;;;;96.55;40.00;;;;;;;;;;10358601;28;20017;-73
2023/02/13 01:47:48;;;;;;;114.45;43.53;;;;;;;;;;10343739;28;20030;-77
2023/02/13 01:52:51;;;;;;;105.30;41.67;;;;;;;;;;10333974;28;20030;-71
2023/02/13 01:57:57;;;;;;;96.60;41.80;;;;;;;;;;10342719;28;20014;-78
2023/02/13 02:03:03;;;;;;;105.75;43.65;;;;;;;;;;10339717;28;20029;-76
2023/02/13 02:08:06;;;;;;;112.18;45.55;;;;;;;;;;10342904;28;20025;-77
2023/02/13 02:13:10;;;;;;;111.47;40.92;;;;;;;;;;10343931;28;20025;-71
2023/02/13 02:18:17;;;;;;;94.63;39.50;;;;;;;;;;10343675;28;20069;-73
2023/02/13 02:23:37;;;;;;;103.93;40.13;;;;;;;;;;10343426;28;20053;-73
2023/02/13 02:28:56;;;;;;;117.80;46.08;;;;;;;;;;10327737;28;20419;-74
2023/02/13 02:34:07;;;;;;;102.13;42.58;;;;;;;;;;10344117;28;20125;-79
2023/02/13 02:39:31;;;;;;;112.05;44.53;;;;;;;;;;10343888;28;20385;-74
2023/02/13 02:44:46;;;;;;;105.45;43.25;;;;;;;;;;10361335;28;20026;-72
2023/02/13 02:50:00;;;;;;;98.88;43.75;;;;;;;;;;10344396;28;20022;-77
2023/02/13 02:55:09;;;;;;;97.68;40.58;;;;;;;;;;10342974;28;20018;-75
2023/02/13 03:27:07;;;;;;;115.25;42.95;;;;;;;;;;10361119;28;20472;-76
2023/02/13 03:32:07;;;;;;;96.05;40.80;;;;;;;;;;10331824;28;20022;-76
2023/02/13 03:42:43;;;;;;;107.78;39.70;;;;;;;;;;10359138;28;20022;-80
2023/02/13 03:47:44;;;;;;;96.18;38.90;;;;;;;;;;10344575;28;20088;-77
2023/02/13 03:52:50;;;;;;;96.15;38.95;;;;;;;;;;10367636;28;20568;-76
2023/02/13 04:03:29;;;;;;;98.75;38.33;;;;;;;;;;10370463;28;20026;-73
2023/02/13 04:08:29;;;;;;;95.28;38.20;;;;;;;;;;10348766;28;20022;-81
2023/02/13 04:13:33;;;;;;;103.03;36.25;;;;;;;;;;10348889;28;20033;-74
2023/02/13 04:18:34;;;;;;;104.43;40.67;;;;;;;;;;10366043;28;20033;-77
2023/02/13 04:23:34;;;;;;;98.53;38.63;;;;;;;;;;10332798;28;20116;-73
2023/02/13 04:28:34;;;;;;;96.22;41.85;;;;;;;;;;10348864;28;20475;-75
2023/02/13 04:33:35;;;;;;;93.43;39.50;;;;;;;;;;10347980;28;20108;-75
2023/02/13 04:38:35;;;;;;;99.40;40.17;;;;;;;;;;10365328;28;20022;-75
2023/02/13 04:43:36;;;;;;;94.57;37.92;;;;;;;;;;10345381;28;20026;-77
2023/02/13 04:48:36;;;;;;;95.95;36.55;;;;;;;;;;10346451;28;20382;-77
2023/02/13 04:53:36;;;;;;;100.45;38.83;;;;;;;;;;10346183;28;20022;-76
2023/02/13 04:58:37;;;;;;;90.72;35.72;;;;;;;;;;10362028;28;20384;-76
2023/02/13 05:03:37;;;;;;;85.07;37.08;;;;;;;;;;10343599;28;20018;-74
2023/02/13 05:08:39;;;;;;;118.60;46.25;;;;;;;;;;10345418;28;20045;-76
2023/02/13 05:13:40;;;;;;;105.40;42.95;;;;;;;;;;10344852;28;20112;-78
2023/02/13 05:18:40;;;;;;;108.88;47.97;;;;;;;;;;10343744;28;20080;-75
2023/02/13 05:23:40;;;;;;;106.88;45.60;;;;;;;;;;10345213;28;20042;-79
2023/02/13 05:34:00;;;;;;;80.32;34.00;;;;;;;;;;10362210;28;20026;-73
2023/02/13 05:39:00;;;;;;;75.53;31.80;;;;;;;;;;10339493;28;20034;-77
2023/02/13 05:44:00;;;;;;;62.72;29.42;;;;;;;;;;10340845;28;20110;-73
2023/02/13 05:49:00;;;;;;;82.07;33.58;;;;;;;;;;10356038;28;20112;-78
2023/02/13 05:54:01;;;;;;;66.70;29.70;;;;;;;;;;10358310;28;20026;-75
2023/02/13 05:59:01;;;;;;;72.40;32.90;;;;;;;;;;10331844;28;20016;-74
2023/02/13 06:04:01;;;;;;;66.40;31.73;;;;;;;;;;10341252;28;20014;-80
2023/02/13 06:09:02;;;;;;;70.57;28.87;;;;;;;;;;10338263;28;20277;-78
2023/02/13 06:14:02;;;;;;;72.93;32.45;;;;;;;;;;10340377;28;20199;-78
2023/02/13 06:19:02;;;;;;;70.75;30.40;;;;;;;;;;10340851;28;20034;-78
2023/02/13 06:24:03;;;;;;;77.03;33.75;;;;;;;;;;10342369;28;20567;-75
2023/02/13 06:29:04;;;;;;;79.10;33.05;;;;;;;;;;10342842;28;20476;-74
2023/02/13 06:34:04;;;;;;;78.55;34.00;;;;;;;;;;10343258;28;20029;-74
2023/02/13 06:39:04;;;;;;;70.13;31.97;;;;;;;;;;10342385;28;20022;-78
2023/02/13 06:44:05;;;;;;;76.07;32.17;;;;;;;;;;10341517;28;20385;-74
2023/02/13 06:49:06;;;;;;;67.50;30.95;;;;;;;;;;10342511;28;20468;-76
2023/02/13 06:54:06;;;;;;;81.45;34.72;;;;;;;;;;10342191;28;20085;-76
2023/02/13 06:59:06;;;;;;;88.03;33.78;;;;;;;;;;10340893;28;20036;-72
2023/02/13 07:04:07;;;;;;;77.18;37.70;;;;;;;;;;10341297;28;20514;-78
2023/02/13 07:09:07;;;;;;;85.88;34.95;;;;;;;;;;10341799;28;20018;-75
2023/02/13 07:14:08;;;;;;;89.70;38.50;;;;;;;;;;10341248;28;20033;-78
2023/02/13 07:19:08;;;;;;;90.45;39.35;;;;;;;;;;10340660;28;20026;-73
2023/02/13 07:24:08;;;;;;;96.68;37.67;;;;;;;;;;10358256;28;20423;-76
2023/02/13 07:29:09;;;;;;;88.77;37.07;;;;;;;;;;10340696;28;20048;-73
2023/02/13 07:34:09;;;;;;;93.07;38.90;;;;;;;;;;10357292;28;20025;-80
2023/02/13 07:39:09;;;;;;;95.85;39.40;;;;;;;;;;10341270;28;20026;-78
2023/02/13 07:44:10;;;;;;;94.95;40.38;;;;;;;;;;10322936;28;20652;-78
2023/02/13 07:49:10;;;;;;;96.50;41.92;;;;;;;;;;10357779;28;20026;-76
2023/02/13 07:54:10;;;;;;;101.07;43.40;;;;;;;;;;10358137;28;20476;-77
2023/02/13 07:59:10;;;;;;;100.53;42.47;;;;;;;;;;10358729;28;20034;-77
2023/02/13 08:04:11;;;;;;;92.50;38.25;;;;;;;;;;10340861;28;20486;-76
2023/02/13 08:14:36;;;;;;;97.95;39.78;;;;;;;;;;10346546;28;20021;-78
2023/02/13 08:19:36;;;;;;;96.27;39.23;;;;;;;;;;10339649;28;20054;-74
2023/02/13 08:24:36;;;;;;;90.22;35.55;;;;;;;;;;10358174;28;20025;-76
2023/02/13 08:29:37;;;;;;;90.35;39.65;;;;;;;;;;10340065;28;20028;-74
2023/02/13 08:34:37;;;;;;;83.45;35.40;;;;;;;;;;10347507;28;20034;-74
2023/02/13 08:39:37;;;;;;;85.80;37.00;;;;;;;;;;10365036;28;20086;-73
2023/02/13 08:44:39;;;;;;;83.20;37.35;;;;;;;;;;10347197;28;20030;-79
2023/02/13 08:49:40;;;;;;;88.20;37.40;;;;;;;;;;10337951;28;20045;-74
2023/02/13 08:54:40;;;;;;;89.55;39.15;;;;;;;;;;10364984;28;20029;-78
2023/02/13 08:59:40;;;;;;;91.88;38.92;;;;;;;;;;10347878;28;20435;-79
2023/02/13 09:04:40;;;;;;;78.82;34.15;;;;;;;;;;10346886;28;20426;-73
2023/02/13 09:09:41;;;;;;;93.40;37.00;;;;;;;;;;10345831;28;20021;-81
2023/02/13 09:14:41;;;;;;;93.57;34.00;;;;;;;;;;10345847;28;20104;-77
2023/02/13 09:19:41;;;;;;;86.53;34.60;;;;;;;;;;10346413;28;20058;-76
2023/02/13 09:24:42;;;;;;;92.53;35.88;;;;;;;;;;10345410;28;20476;-74
2023/02/13 09:29:42;;;;;;;97.43;37.78;;;;;;;;;;10345480;28;20615;-71
2023/02/13 09:34:42;;;;;;;97.65;33.90;;;;;;;;;;10349113;28;20046;-74
2023/02/13 09:39:42;;;;;;;86.67;35.90;;;;;;;;;;10328068;28;20021;-72
2023/02/13 09:44:44;;;;;;;93.35;34.63;;;;;;;;;;10361722;28;20514;-72
2023/02/13 09:49:51;;;;;;;88.82;36.13;;;;;;;;;;10344783;28;20026;-76
2023/02/13 09:54:51;;;;;;;81.33;34.20;;;;;;;;;;10347980;28;20022;-81
2023/02/13 10:00:12;;;;;;;80.45;34.80;;;;;;;;;;10339660;28;20022;-76
2023/02/13 10:05:18;;;;;;;101.00;34.35;;;;;;;;;;10370374;28;20105;-78
2023/02/13 10:10:21;;;;;;;84.47;34.60;;;;;;;;;;10343375;28;20045;-80
2023/02/13 10:15:22;;;;;;;82.40;36.13;;;;;;;;;;10341926;28;20037;-79
2023/02/13 10:20:22;;;;;;;86.35;34.53;;;;;;;;;;10360445;28;20049;-78
2023/02/13 10:25:41;;;;;;;88.50;32.47;;;;;;;;;;10359788;28;20025;-77
2023/02/13 10:31:05;;;;;;;67.13;30.05;;;;;;;;;;10342263;28;20025;-79
2023/02/13 10:36:08;;;;;;;74.38;31.33;;;;;;;;;;10342074;28;20124;-77
2023/02/13 10:41:23;;;;;;;57.05;27.25;;;;;;;;;;10342948;28;20557;-79
2023/02/13 10:46:24;;;;;;;75.07;31.38;;;;;;;;;;10343614;28;20129;-80
2023/02/13 10:51:27;;;;;;;71.05;29.80;;;;;;;;;;10361097;28;20025;-80
2023/02/13 10:56:31;;;;;;;58.17;28.30;;;;;;;;;;10344206;28;20125;-78
2023/02/13 11:01:36;;;;;;;59.70;27.67;;;;;;;;;;10343840;28;20022;-73
2023/02/13 11:06:37;;;;;;;68.72;30.05;;;;;;;;;;10343844;28;20373;-78
2023/02/13 11:11:39;;;;;;;65.03;28.27;;;;;;;;;;10342799;28;20029;-73
2023/02/13 11:16:41;;;;;;;61.30;27.83;;;;;;;;;;10343357;28;20215;-74
2023/02/13 11:21:42;;;;;;;56.40;25.42;;;;;;;;;;10331998;28;20045;-78
2023/02/13 11:26:42;;;;;;;59.42;28.55;;;;;;;;;;10338383;28;20052;-72
2023/02/13 11:31:43;;;;;;;59.80;24.40;;;;;;;;;;10341661;28;20604;-75
2023/02/13 11:36:43;;;;;;;52.95;22.00;;;;;;;;;;10342773;28;20048;-77
2023/02/13 11:41:45;;;;;;;47.90;24.38;;;;;;;;;;10343317;28;20370;-78
2023/02/13 11:46:46;;;;;;;48.97;23.75;;;;;;;;;;10342969;28;20021;-72
2023/02/13 11:51:50;;;;;;;39.05;19.60;;;;;;;;;;10342162;28;20040;-81
2023/02/13 11:56:51;;;;;;;38.53;19.10;;;;;;;;;;10342919;28;20476;-77
2023/02/13 12:02:10;;;;;;;40.42;20.20;;;;;;;;;;10342354;28;20033;-73
2023/02/13 12:07:10;;;;;;;49.03;21.05;;;;;;;;;;10344672;28;20034;-77
2023/02/13 12:12:16;;;;;;;53.80;23.52;;;;;;;;;;10349137;28;20072;-72
2023/02/13 12:17:19;;;;;;;50.42;21.50;;;;;;;;;;10367429;28;20037;-74
2023/02/13 12:22:22;;;;;;;57.35;21.13;;;;;;;;;;10313850;28;20059;-81
2023/02/13 12:27:41;;;;;;;41.60;17.02;;;;;;;;;;10323512;28;20042;-72
2023/02/13 12:32:49;;;;;;;47.55;18.77;;;;;;;;;;10319132;28;20105;-74
2023/02/13 12:37:52;;;;;;;43.65;19.05;;;;;;;;;;10313227;28;20030;-76
2023/02/13 12:43:11;;;;;;;46.90;18.23;;;;;;;;;;10325439;28;20034;-76
2023/02/13 12:48:21;;;;;;;45.58;19.20;;;;;;;;;;10323357;28;20400;-72
2023/02/13 12:53:41;;;;;;;36.63;16.60;;;;;;;;;;10314275;28;20065;-76
2023/02/13 12:58:49;;;;;;;40.17;15.98;;;;;;;;;;10323384;28;20453;-73
2023/02/13 13:03:49;;;;;;;47.40;13.98;;;;;;;;;;10315791;28;20121;-72
2023/02/13 13:09:08;;;;;;;31.65;14.02;;;;;;;;;;10316220;28;20040;-77
2023/02/13 13:14:16;;;;;;;31.73;14.05;;;;;;;;;;10322130;28;20019;-72
2023/02/13 13:19:39;;;;;;;40.60;13.90;;;;;;;;;;10315870;28;20100;-81
2023/02/13 13:25:00;;;;;;;31.95;14.52;;;;;;;;;;10340235;28;20037;-78
2023/02/13 13:30:05;;;;;;;35.47;14.30;;;;;;;;;;10319880;28;20092;-72
2023/02/13 13:35:11;;;;;;;29.83;14.57;;;;;;;;;;10338591;28;20034;-79
2023/02/13 13:40:20;;;;;;;40.78;15.65;;;;;;;;;;10344429;28;20061;-79
2023/02/13 13:45:26;;;;;;;35.17;14.85;;;;;;;;;;10347756;28;20017;-75
2023/02/13 13:50:28;;;;;;;41.15;16.88;;;;;;;;;;10353459;28;20017;-78
2023/02/13 13:55:48;;;;;;;33.97;14.93;;;;;;;;;;10359584;28;20558;-78
2023/02/13 14:01:07;;;;;;;30.10;13.98;;;;;;;;;;10351072;28;20034;-77
2023/02/13 14:06:08;;;;;;;36.55;16.17;;;;;;;;;;10348222;28;20026;-76
2023/02/13 14:11:27;;;;;;;32.72;14.98;;;;;;;;;;10331705;28;20420;-79
2023/02/13 14:16:36;;;;;;;33.05;15.13;;;;;;;;;;10342807;28;20468;-79
2023/02/13 14:21:36;;;;;;;32.08;13.18;;;;;;;;;;10333140;28;20136;-78
2023/02/13 14:26:38;;;;;;;33.95;14.80;;;;;;;;;;10335297;28;20033;-80
2023/02/13 14:31:43;;;;;;;30.63;14.23;;;;;;;;;;10353593;28;20033;-73
2023/02/13 14:36:45;;;;;;;35.80;16.17;;;;;;;;;;10319334;28;20116;-78
2023/02/13 14:41:52;;;;;;;32.17;15.63;;;;;;;;;;10335633;28;20026;-77
2023/02/13 14:46:55;;;;;;;32.22;16.00;;;;;;;;;;10351878;28;20163;-78
2023/02/13 14:52:00;;;;;;;36.03;14.27;;;;;;;;;;10335892;28;20074;-73
2023/02/13 14:57:08;;;;;;;42.30;16.15;;;;;;;;;;10335932;28;20026;-75
2023/02/13 15:02:28;;;;;;;32.60;17.13;;;;;;;;;;10349113;28;20034;-78
2023/02/13 15:07:30;;;;;;;33.35;14.98;;;;;;;;;;10329426;28;20022;-79
2023/02/13 15:12:33;;;;;;;32.80;17.17;;;;;;;;;;10350058;28;20177;-78
2023/02/13 15:17:38;;;;;;;36.10;16.48;;;;;;;;;;10348189;28;20030;-75
2023/02/13 15:22:40;;;;;;;33.50;15.65;;;;;;;;;;10334474;28;20104;-78
2023/02/13 15:27:42;;;;;;;35.88;14.63;;;;;;;;;;10335761;28;20566;-80
2023/02/13 15:32:42;;;;;;;27.63;13.45;;;;;;;;;;10331960;28;20032;-79
2023/02/13 15:37:42;;;;;;;37.97;16.50;;;;;;;;;;10341951;28;20026;-76
2023/02/13 15:42:43;;;;;;;33.42;14.63;;;;;;;;;;10345097;28;20022;-72
2023/02/13 15:47:45;;;;;;;39.30;13.97;;;;;;;;;;10348777;28;20109;-77
2023/02/13 15:52:45;;;;;;;45.60;15.77;;;;;;;;;;10347491;28;20018;-74
2023/02/13 15:57:46;;;;;;;39.40;17.38;;;;;;;;;;10345602;28;20407;-74
2023/02/13 16:02:47;;;;;;;29.75;15.10;;;;;;;;;;10348331;28;20017;-78
2023/02/13 16:07:47;;;;;;;39.67;15.40;;;;;;;;;;10346478;28;20495;-78
2023/02/13 16:12:48;;;;;;;32.85;14.55;;;;;;;;;;10347751;28;20017;-72
2023/02/13 16:17:48;;;;;;;35.05;16.13;;;;;;;;;;10344331;28;20053;-73
2023/02/13 16:22:54;;;;;;;34.28;15.45;;;;;;;;;;10334092;28;20058;-73
2023/02/13 16:27:55;;;;;;;48.22;17.52;;;;;;;;;;10335305;28;20061;-74
2023/02/13 16:33:09;;;;;;;42.00;18.43;;;;;;;;;;10335950;28;20334;-71
2023/02/13 16:38:24;;;;;;;41.15;18.50;;;;;;;;;;10334229;28;20040;-77
2023/02/13 16:43:34;;;;;;;38.75;17.00;;;;;;;;;;10337098;28;20036;-76
2023/02/13 16:48:35;;;;;;;43.03;20.23;;;;;;;;;;10355330;28;20053;-74
2023/02/13 16:53:36;;;;;;;46.00;20.52;;;;;;;;;;10334112;28;20049;-74
2023/02/13 16:58:36;;;;;;;52.20;20.83;;;;;;;;;;10333597;28;20030;-72
2023/02/13 17:03:36;;;;;;;42.90;20.55;;;;;;;;;;10329310;28;20022;-74
2023/02/13 17:08:37;;;;;;;46.17;21.00;;;;;;;;;;10330020;28;20399;-71
2023/02/13 17:13:37;;;;;;;53.67;21.07;;;;;;;;;;10369297;22;20063;-75
2023/02/13 17:18:37;;;;;;;52.55;21.27;;;;;;;;;;10335915;28;20030;-69
2023/02/13 17:23:39;;;;;;;53.15;22.75;;;;;;;;;;10350474;28;20032;-73
2023/02/13 17:28:39;;;;;;;57.58;22.55;;;;;;;;;;10350656;28;20134;-73
2023/02/13 17:33:40;;;;;;;51.95;21.48;;;;;;;;;;10332716;28;20028;-72
2023/02/13 17:38:40;;;;;;;46.75;23.00;;;;;;;;;;10349597;28;20046;-78
2023/02/13 17:43:40;;;;;;;45.95;22.67;;;;;;;;;;10335489;28;20052;-72
2023/02/13 17:48:41;;;;;;;47.35;21.88;;;;;;;;;;10335210;28;20044;-73
2023/02/13 17:53:41;;;;;;;53.73;23.23;;;;;;;;;;10334477;28;20393;-73
2023/02/13 17:58:41;;;;;;;47.63;23.13;;;;;;;;;;10349604;28;20022;-75
2023/02/13 18:03:42;;;;;;;48.53;22.23;;;;;;;;;;10331151;28;20026;-80
2023/02/13 18:08:42;;;;;;;46.83;21.58;;;;;;;;;;10353288;28;20032;-75
2023/02/13 18:13:46;;;;;;;47.90;22.17;;;;;;;;;;10352844;28;20058;-79
2023/02/13 18:18:47;;;;;;;54.05;21.85;;;;;;;;;;10356122;28;20039;-76
2023/02/13 18:23:50;;;;;;;42.17;19.23;;;;;;;;;;10351851;28;20032;-74
2023/02/13 18:28:51;;;;;;;50.50;21.13;;;;;;;;;;10339548;28;20076;-71
2023/02/13 18:33:52;;;;;;;45.47;21.38;;;;;;;;;;10335505;28;20025;-74
2023/02/13 18:38:52;;;;;;;43.17;19.25;;;;;;;;;;10335800;28;20091;-72
2023/02/13 18:43:54;;;;;;;49.20;21.60;;;;;;;;;;10352794;28;20038;-78
2023/02/13 18:48:55;;;;;;;52.17;21.90;;;;;;;;;;10335444;28;20476;-75
2023/02/13 18:53:55;;;;;;;42.15;19.33;;;;;;;;;;10336082;28;20096;-72
2023/02/13 18:58:55;;;;;;;46.67;20.45;;;;;;;;;;10353465;28;20199;-72
2023/02/13 19:03:56;;;;;;;38.83;18.45;;;;;;;;;;10351713;28;20025;-76
2023/02/13 19:08:56;;;;;;;42.53;18.10;;;;;;;;;;10352663;28;20472;-73
2023/02/13 19:13:59;;;;;;;50.83;19.55;;;;;;;;;;10331514;28;20123;-77
2023/02/13 19:19:02;;;;;;;49.10;20.90;;;;;;;;;;10351948;28;20034;-76
2023/02/13 19:24:03;;;;;;;42.30;19.08;;;;;;;;;;10336289;28;20026;-72
2023/02/13 19:29:04;;;;;;;41.90;18.58;;;;;;;;;;10333612;28;20041;-72
2023/02/13 19:34:04;;;;;;;39.63;16.67;;;;;;;;;;10333227;28;20038;-78
2023/02/13 19:39:05;;;;;;;36.17;16.05;;;;;;;;;;10333018;28;20605;-77
2023/02/13 19:44:07;;;;;;;38.10;15.23;;;;;;;;;;10355772;28;20400;-76
2023/02/13 19:49:08;;;;;;;44.80;16.92;;;;;;;;;;10346157;28;20559;-74
2023/02/13 19:54:09;;;;;;;40.40;16.20;;;;;;;;;;10339938;28;20487;-75
2023/02/13 19:59:12;;;;;;;31.83;16.08;;;;;;;;;;10357328;28;20037;-77
2023/02/13 20:04:12;;;;;;;39.05;17.38;;;;;;;;;;10353017;28;20030;-78
2023/02/13 20:09:12;;;;;;;34.50;15.52;;;;;;;;;;10355309;28;20030;-75
2023/02/13 20:14:15;;;;;;;33.78;16.13;;;;;;;;;;10343519;28;20054;-77
2023/02/13 20:19:15;;;;;;;34.80;15.75;;;;;;;;;;10359135;28;20021;-77
2023/02/13 20:24:16;;;;;;;29.48;13.88;;;;;;;;;;10348789;28;20476;-76
2023/02/13 20:29:16;;;;;;;35.15;14.68;;;;;;;;;;10384024;23;20050;-73
2023/02/13 20:34:16;;;;;;;29.43;14.60;;;;;;;;;;10394060;28;20807;-71
2023/02/13 20:39:17;;;;;;;30.38;14.80;;;;;;;;;;10380352;28;20515;-72
2023/02/13 20:44:21;;;;;;;27.85;15.23;;;;;;;;;;10376121;28;20496;-74
2023/02/13 20:49:22;;;;;;;32.00;13.98;;;;;;;;;;10378273;28;20037;-74
2023/02/13 20:54:22;;;;;;;35.03;15.63;;;;;;;;;;10376208;28;20450;-73
2023/02/13 20:59:22;;;;;;;28.63;15.13;;;;;;;;;;10380264;28;20330;-73
2023/02/13 21:04:22;;;;;;;34.83;16.57;;;;;;;;;;10371760;28;20044;-74
2023/02/13 21:09:23;;;;;;;33.43;15.47;;;;;;;;;;10364269;28;20506;-74
2023/02/13 21:14:23;;;;;;;32.67;15.47;;;;;;;;;;10369936;28;20025;-73
2023/02/13 21:19:23;;;;;;;39.45;16.90;;;;;;;;;;10370055;28;20280;-76
2023/02/13 21:24:24;;;;;;;34.70;15.67;;;;;;;;;;10373632;28;20510;-77
2023/02/13 21:29:24;;;;;;;31.02;16.45;;;;;;;;;;10346050;28;20297;-79
2023/02/13 21:34:24;;;;;;;34.58;16.40;;;;;;;;;;10368200;28;20026;-71
2023/02/13 21:39:24;;;;;;;33.20;16.57;;;;;;;;;;10358570;28;20117;-73
2023/02/13 21:44:25;;;;;;;36.63;16.55;;;;;;;;;;10376243;28;20105;-74
2023/02/13 21:49:25;;;;;;;34.13;17.10;;;;;;;;;;10369760;28;20049;-76
2023/02/13 21:54:25;;;;;;;33.07;15.90;;;;;;;;;;10381584;28;20376;-70
2023/02/13 21:59:26;;;;;;;38.20;17.93;;;;;;;;;;10339500;23;20054;-74
2023/02/13 22:04:26;;;;;;;37.43;18.50;;;;;;;;;;10325044;28;20033;-72
2023/02/13 22:09:26;;;;;;;31.88;17.88;;;;;;;;;;10318481;28;20042;-76
2023/02/13 22:14:27;;;;;;;38.30;17.93;;;;;;;;;;10322343;28;20080;-71
2023/02/13 22:19:27;;;;;;;34.63;16.60;;;;;;;;;;10304455;28;20030;-73
2023/02/13 22:24:27;;;;;;;38.22;16.45;;;;;;;;;;10304958;28;20380;-70
2023/02/13 22:29:27;;;;;;;36.60;18.17;;;;;;;;;;10310868;28;20026;-74
2023/02/13 22:34:28;;;;;;;38.60;17.63;;;;;;;;;;10292732;28;20030;-71
2023/02/13 22:39:28;;;;;;;45.05;18.75;;;;;;;;;;10312329;28;20026;-74
2023/02/13 22:44:28;;;;;;;39.17;18.27;;;;;;;;;;10291810;28;20031;-73
2023/02/13 22:49:28;;;;;;;38.47;20.10;;;;;;;;;;10288130;28;20417;-72
2023/02/13 22:54:29;;;;;;;43.70;19.25;;;;;;;;;;10285632;28;20299;-74
2023/02/13 22:59:35;;;;;;;38.50;19.20;;;;;;;;;;10307968;28;20112;-76
2023/02/13 23:04:35;;;;;;;35.45;17.60;;;;;;;;;;10329982;28;20401;-78
2023/02/13 23:09:35;;;;;;;35.72;18.23;;;;;;;;;;10315688;28;20375;-74
2023/02/13 23:14:35;;;;;;;42.67;20.50;;;;;;;;;;10325832;28;20019;-75
2023/02/13 23:19:36;;;;;;;37.67;19.58;;;;;;;;;;10314085;28;20420;-75
2023/02/13 23:24:36;;;;;;;45.53;19.85;;;;;;;;;;10331164;28;20026;-75
2023/02/13 23:29:36;;;;;;;36.00;18.20;;;;;;;;;;10325999;28;20029;-76
2023/02/13 23:34:36;;;;;;;37.90;20.55;;;;;;;;;;10314685;28;20022;-74
2023/02/13 23:39:37;;;;;;;36.57;19.30;;;;;;;;;;10335899;28;20015;-73
2023/02/13 23:44:37;;;;;;;34.40;17.73;;;;;;;;;;10334384;28;20444;-74
2023/02/13 23:49:37;;;;;;;39.05;17.33;;;;;;;;;;10321856;28;20021;-77
2023/02/13 23:54:37;;;;;;;38.60;16.95;;;;;;;;;;10346079;22;20066;-77
2023/02/13 23:59:39;;;;;;;35.30;16.50;;;;;;;;;;10296014;28;20026;-72
